createdAt,value
2022-10-10T00:01:38.218Z,6.63
2022-10-10T00:04:07.529Z,5.30
2022-10-10T00:06:36.115Z,5.77
2022-10-10T00:09:05.550Z,5.10
2022-10-10T00:11:34.519Z,5.67
2022-10-10T00:14:02.987Z,6.13
2022-10-10T00:16:31.415Z,7.20
2022-10-10T00:19:01.248Z,8.20
2022-10-10T00:21:29.841Z,6.17
2022-10-10T00:23:58.335Z,6.17
2022-10-10T00:26:26.782Z,6.07
2022-10-10T00:28:55.312Z,6.13
2022-10-10T00:31:23.776Z,7.67
2022-10-10T00:33:52.353Z,8.40
2022-10-10T00:36:22.433Z,6.80
2022-10-10T00:38:50.994Z,7.83
2022-10-10T00:41:19.452Z,5.80
2022-10-10T00:44:06.780Z,6.47
2022-10-10T00:46:35.391Z,6.60
2022-10-10T00:49:05.599Z,6.90
2022-10-10T00:51:35.595Z,6.77
2022-10-10T00:54:08.881Z,6.83
2022-10-10T00:56:41.603Z,6.40
2022-10-10T00:59:12.538Z,5.70
2022-10-10T01:01:41.522Z,5.80
2022-10-10T01:04:32.007Z,6.23
2022-10-10T01:07:04.196Z,6.30
2022-10-10T01:09:34.235Z,5.30
2022-10-10T01:12:10.942Z,6.10
2022-10-10T01:14:47.292Z,4.20
2022-10-10T01:17:23.975Z,4.60
2022-10-10T01:20:23.176Z,6.23
2022-10-10T01:23:09.427Z,3.80
2022-10-10T01:25:52.619Z,3.63
2022-10-10T01:28:35.200Z,3.17
2022-10-10T01:31:06.804Z,3.83
2022-10-10T01:33:44.293Z,4.20
2022-10-10T01:36:20.757Z,3.40
2022-10-10T01:38:57.265Z,3.60
2022-10-10T01:41:28.647Z,3.43
2022-10-10T01:43:59.566Z,4.17
2022-10-10T01:46:28.495Z,4.13
2022-10-10T01:48:59.193Z,5.23
2022-10-10T01:51:44.526Z,4.67
2022-10-10T01:54:27.556Z,4.43
2022-10-10T01:57:08.473Z,4.60
2022-10-10T01:59:47.710Z,4.83
2022-10-10T02:02:23.258Z,5.17
2022-10-10T02:04:54.347Z,5.17
2022-10-10T02:07:28.081Z,4.90
2022-10-10T02:09:58.429Z,5.13
2022-10-10T02:12:30.944Z,4.23
2022-10-10T02:15:07.558Z,5.10
2022-10-10T02:17:39.373Z,5.37
2022-10-10T02:20:09.977Z,5.83
2022-10-10T02:22:39.921Z,5.80
2022-10-10T02:25:09.074Z,4.23
2022-10-10T02:27:43.999Z,3.80
2022-10-10T02:30:15.491Z,5.00
2022-10-10T02:32:48.446Z,4.40
2022-10-10T02:35:20.725Z,4.93
2022-10-10T02:37:49.997Z,5.00
2022-10-10T02:40:22.423Z,4.70
2022-10-10T02:42:53.509Z,4.80
2022-10-10T02:45:24.347Z,4.50
2022-10-10T02:47:53.160Z,4.83
2022-10-10T02:50:21.729Z,4.20
2022-10-10T02:52:50.432Z,4.00
2022-10-10T02:55:19.150Z,5.07
2022-10-10T02:57:47.678Z,4.23
2022-10-10T03:00:16.626Z,5.07
2022-10-10T03:02:47.163Z,4.30
2022-10-10T03:05:15.701Z,4.30
2022-10-10T03:07:44.189Z,5.00
2022-10-10T03:10:12.640Z,4.67
2022-10-10T03:12:41.289Z,4.93
2022-10-10T03:15:11.940Z,5.07
2022-10-10T03:17:40.763Z,4.33
2022-10-10T03:20:11.618Z,5.37
2022-10-10T03:22:40.317Z,4.10
2022-10-10T03:25:09.269Z,4.17
2022-10-10T03:27:37.771Z,4.20
2022-10-10T03:30:07.057Z,5.23
2022-10-10T03:32:35.523Z,4.20
2022-10-10T03:35:04.099Z,4.27
2022-10-10T03:37:33.888Z,4.20
2022-10-10T03:40:02.374Z,4.43
2022-10-10T03:42:30.793Z,3.87
2022-10-10T03:44:59.283Z,5.33
2022-10-10T03:47:27.774Z,4.30
2022-10-10T03:49:56.204Z,3.33
2022-10-10T03:52:24.729Z,3.27
2022-10-10T03:54:54.547Z,3.43
2022-10-10T03:57:23.046Z,4.63
2022-10-10T03:59:51.586Z,3.93
2022-10-10T04:02:20.065Z,4.47
2022-10-10T04:04:48.519Z,3.50
2022-10-10T04:07:17.009Z,3.73
2022-10-10T04:09:45.421Z,4.27
2022-10-10T04:12:15.294Z,4.37
2022-10-10T04:14:43.768Z,3.93
2022-10-10T04:17:12.189Z,4.13
2022-10-10T04:19:40.683Z,4.20
2022-10-10T04:22:11.269Z,4.60
2022-10-10T04:24:40.296Z,3.90
2022-10-10T04:27:08.806Z,3.97
2022-10-10T04:29:38.912Z,3.83
2022-10-10T04:32:07.661Z,5.40
2022-10-10T04:34:36.272Z,3.67
2022-10-10T04:37:04.810Z,4.40
2022-10-10T04:39:33.508Z,4.10
2022-10-10T04:42:02.028Z,4.33
2022-10-10T04:44:30.791Z,4.13
2022-10-10T04:47:00.732Z,4.07
2022-10-10T04:49:29.363Z,5.53
2022-10-10T04:51:57.997Z,5.73
2022-10-10T04:54:26.545Z,5.27
2022-10-10T04:56:55.069Z,7.90
2022-10-10T04:59:23.652Z,4.47
2022-10-10T05:01:52.184Z,4.60
2022-10-10T05:04:22.194Z,6.00
2022-10-10T05:06:50.808Z,5.70
2022-10-10T05:09:19.315Z,6.10
2022-10-10T05:11:47.924Z,8.27
2022-10-10T05:14:16.431Z,6.60
2022-10-10T05:16:45.074Z,5.57
2022-10-10T05:19:13.686Z,5.47
2022-10-10T05:21:43.677Z,9.03
2022-10-10T05:24:12.328Z,6.90
2022-10-10T05:26:43.262Z,63.30
2022-10-10T05:29:12.091Z,9.00
2022-10-10T05:31:40.764Z,6.33
2022-10-10T05:34:12.814Z,5.70
2022-10-10T05:36:42.877Z,6.40
2022-10-10T05:39:11.683Z,4.37
2022-10-10T05:41:40.234Z,4.80
2022-10-10T05:44:09.354Z,4.93
2022-10-10T05:46:38.010Z,6.60
2022-10-10T05:49:06.648Z,5.67
2022-10-10T05:51:35.403Z,6.70
2022-10-10T05:54:06.288Z,5.90
2022-10-10T05:56:34.831Z,5.60
2022-10-10T05:59:03.560Z,5.13
2022-10-10T06:01:32.284Z,5.10
2022-10-10T06:04:00.887Z,4.60
2022-10-10T06:06:29.457Z,4.77
2022-10-10T06:08:59.180Z,4.83
2022-10-10T06:11:29.308Z,4.33
2022-10-10T06:13:57.848Z,4.30
2022-10-10T06:16:27.864Z,4.33
2022-10-10T06:18:57.679Z,4.17
2022-10-10T06:21:26.513Z,4.37
2022-10-10T06:23:55.213Z,4.40
2022-10-10T06:26:23.863Z,4.33
2022-10-10T06:28:53.950Z,4.50
2022-10-10T06:31:22.781Z,4.93
2022-10-10T06:33:53.205Z,4.30
2022-10-10T06:36:21.732Z,5.07
2022-10-10T06:38:50.637Z,5.10
2022-10-10T06:41:19.319Z,5.23
2022-10-10T06:43:49.106Z,5.80
2022-10-10T06:46:20.184Z,4.43
2022-10-10T06:48:49.136Z,4.70
2022-10-10T06:51:20.816Z,5.20
2022-10-10T06:53:51.263Z,4.20
2022-10-10T06:56:27.161Z,5.77
2022-10-10T06:58:57.043Z,3.63
2022-10-10T07:01:28.835Z,4.97
2022-10-10T07:03:58.155Z,4.77
2022-10-10T07:06:26.964Z,4.90
2022-10-10T07:08:58.310Z,4.33
2022-10-10T07:11:27.145Z,4.50
2022-10-10T07:13:55.687Z,5.10
2022-10-10T07:16:24.232Z,4.70
2022-10-10T07:18:54.272Z,5.70
2022-10-10T07:21:23.507Z,6.17
2022-10-10T07:23:57.401Z,5.43
2022-10-10T07:26:31.135Z,5.23
2022-10-10T07:29:00.024Z,5.53
2022-10-10T07:31:28.799Z,5.77
2022-10-10T07:33:59.386Z,5.90
2022-10-10T07:36:28.303Z,5.13
2022-10-10T07:38:57.123Z,10.47
2022-10-10T07:41:25.791Z,9.27
2022-10-10T07:43:56.955Z,7.90
2022-10-10T07:46:26.254Z,6.77
2022-10-10T07:48:54.940Z,7.57
2022-10-10T07:51:26.252Z,8.37
2022-10-10T07:53:54.927Z,7.07
2022-10-10T07:56:23.555Z,7.63
2022-10-10T07:58:52.095Z,7.20
2022-10-10T08:01:21.282Z,12.00
2022-10-10T08:03:50.336Z,8.67
2022-10-10T08:06:19.674Z,5.93
2022-10-10T08:08:53.605Z,5.17
2022-10-10T08:11:23.262Z,5.10
2022-10-10T08:13:52.764Z,6.60
2022-10-10T08:16:21.776Z,6.10
2022-10-10T08:18:50.343Z,6.17
2022-10-10T08:21:19.251Z,5.07
2022-10-10T08:23:48.104Z,6.33
2022-10-10T08:26:20.102Z,5.50
2022-10-10T08:28:49.347Z,6.27
2022-10-10T08:31:20.330Z,6.07
2022-10-10T08:33:49.779Z,5.47
2022-10-10T08:36:20.146Z,6.00
2022-10-10T08:38:49.062Z,5.57
2022-10-10T08:41:26.367Z,5.13
2022-10-10T08:43:59.105Z,6.03
2022-10-10T08:46:36.442Z,5.40
2022-10-10T08:49:17.592Z,6.43
2022-10-10T08:51:52.598Z,5.40
2022-10-10T08:54:23.349Z,5.30
2022-10-10T08:56:54.430Z,6.50
2022-10-10T08:59:25.665Z,6.37
2022-10-10T09:02:18.975Z,6.00
2022-10-10T09:04:49.035Z,7.37
2022-10-10T09:07:28.031Z,5.60
2022-10-10T09:10:04.595Z,4.50
2022-10-10T09:12:43.250Z,5.73
2022-10-10T09:15:18.057Z,5.17
2022-10-10T09:17:52.900Z,5.30
2022-10-10T09:23:32.038Z,5.50
2022-10-10T09:26:11.062Z,5.17
2022-10-10T09:28:45.268Z,4.40
2022-10-10T09:31:19.651Z,5.40
2022-10-10T09:33:54.920Z,4.47
2022-10-10T09:36:28.369Z,4.13
2022-10-10T09:39:00.620Z,4.33
2022-10-10T09:41:36.322Z,4.23
2022-10-10T09:44:11.946Z,3.90
2022-10-10T09:46:40.803Z,3.63
2022-10-10T09:49:11.500Z,3.20
2022-10-10T09:51:40.092Z,3.37
2022-10-10T09:54:09.246Z,3.90
2022-10-10T09:56:44.523Z,3.83
2022-10-10T09:59:39.836Z,3.97
2022-10-10T10:02:15.681Z,3.60
2022-10-10T10:04:44.461Z,3.93
2022-10-10T10:07:28.769Z,4.00
2022-10-10T10:10:00.175Z,3.30
2022-10-10T10:12:33.234Z,3.70
2022-10-10T10:15:06.628Z,2.90
2022-10-10T10:17:35.361Z,3.57
2022-10-10T10:20:07.558Z,3.93
2022-10-10T10:22:40.304Z,3.37
2022-10-10T10:25:32.424Z,3.70
2022-10-10T10:28:18.103Z,3.53
2022-10-10T10:30:48.660Z,3.50
2022-10-10T10:33:27.071Z,3.60
2022-10-10T10:36:02.927Z,3.87
2022-10-10T10:38:43.510Z,3.40
2022-10-10T10:41:19.524Z,4.10
2022-10-10T10:44:02.627Z,3.43
2022-10-10T10:46:43.715Z,3.23
2022-10-10T10:49:18.758Z,3.30
2022-10-10T10:52:16.102Z,3.60
2022-10-10T10:54:59.319Z,3.60
2022-10-10T10:57:51.187Z,4.37
2022-10-10T11:01:19.912Z,4.00
2022-10-10T11:05:16.106Z,2.87
2022-10-10T11:06:39.578Z,4.03
2022-10-10T11:09:44.885Z,3.10
2022-10-10T11:12:16.916Z,2.80
2022-10-10T11:14:56.530Z,3.80
2022-10-10T11:17:36.230Z,3.33
2022-10-10T11:20:19.302Z,3.73
2022-10-10T11:22:52.395Z,3.03
2022-10-10T11:25:24.843Z,2.70
2022-10-10T11:27:59.169Z,2.77
2022-10-10T11:30:30.539Z,3.53
2022-10-10T11:33:05.471Z,2.63
2022-10-10T11:35:41.745Z,3.13
2022-10-10T11:38:22.272Z,4.13
2022-10-10T11:40:57.183Z,4.00
2022-10-10T11:43:41.801Z,4.00
2022-10-10T11:46:19.208Z,3.90
2022-10-10T11:48:54.325Z,4.10
2022-10-10T11:51:42.169Z,3.70
2022-10-10T11:54:28.665Z,3.30
2022-10-10T11:57:04.487Z,4.10
2022-10-10T11:59:41.435Z,4.10
2022-10-10T12:02:19.135Z,4.30
2022-10-10T12:04:47.989Z,4.20
2022-10-10T12:07:23.875Z,4.10
2022-10-10T12:09:57.346Z,4.10
2022-10-10T12:12:29.352Z,3.97
2022-10-10T12:15:02.288Z,3.60
2022-10-10T12:17:34.312Z,4.17
2022-10-10T12:20:11.589Z,3.20
2022-10-10T12:22:41.936Z,3.43
2022-10-10T12:25:25.991Z,4.10
2022-10-10T12:28:23.767Z,4.07
2022-10-10T12:31:28.542Z,3.50
2022-10-10T12:34:07.662Z,3.87
2022-10-10T12:37:22.005Z,4.73
2022-10-10T12:40:29.054Z,3.27
2022-10-10T12:43:23.915Z,4.40
2022-10-10T12:46:24.497Z,4.40
2022-10-10T12:49:16.312Z,3.77
2022-10-10T12:51:45.959Z,3.40
2022-10-10T12:54:25.637Z,4.20
2022-10-10T12:57:02.584Z,4.30
2022-10-10T12:59:35.896Z,3.43
2022-10-10T13:02:11.007Z,4.73
2022-10-10T13:04:44.402Z,4.67
2022-10-10T13:07:18.315Z,4.57
2022-10-10T13:09:49.662Z,3.93
2022-10-10T13:12:27.249Z,4.60
2022-10-10T13:15:01.881Z,5.83
2022-10-10T13:17:32.778Z,3.57
2022-10-10T13:20:14.006Z,4.37
2022-10-10T13:23:05.968Z,4.00
2022-10-10T13:25:38.652Z,4.33
2022-10-10T13:28:17.705Z,4.33
2022-10-10T13:30:48.958Z,4.00
2022-10-10T13:33:19.757Z,4.23
2022-10-10T13:35:50.494Z,4.00
2022-10-10T13:38:24.376Z,3.70
2022-10-10T13:40:54.043Z,4.77
2022-10-10T13:43:23.104Z,4.30
2022-10-10T13:45:59.163Z,4.07
2022-10-10T13:48:38.406Z,3.80
2022-10-10T13:51:10.004Z,4.30
2022-10-10T13:53:53.166Z,4.10
2022-10-10T13:56:28.918Z,3.97
2022-10-10T13:59:06.075Z,4.03
2022-10-10T14:01:39.510Z,4.60
2022-10-10T14:04:18.790Z,3.60
2022-10-10T14:06:57.038Z,3.03
2022-10-10T14:09:30.693Z,4.33
2022-10-10T14:12:03.170Z,4.50
2022-10-10T14:14:40.470Z,3.63
2022-10-10T14:17:11.532Z,4.50
2022-10-10T14:19:40.811Z,4.80
2022-10-10T14:22:09.578Z,4.13
2022-10-10T14:24:38.309Z,4.40
2022-10-10T14:27:13.357Z,4.00
2022-10-10T14:29:41.850Z,3.50
2022-10-10T14:32:12.774Z,4.20
2022-10-10T14:34:42.074Z,3.73
2022-10-10T14:37:21.680Z,4.77
2022-10-10T14:39:50.337Z,3.60
2022-10-10T14:42:21.547Z,3.70
2022-10-10T14:44:50.192Z,4.13
2022-10-10T14:47:22.684Z,4.70
2022-10-10T14:49:52.632Z,3.97
2022-10-10T14:52:21.201Z,5.30
2022-10-10T14:54:49.637Z,4.20
2022-10-10T14:57:18.184Z,4.07
2022-10-10T14:59:49.748Z,3.97
2022-10-10T15:02:28.449Z,3.70
2022-10-10T15:04:58.358Z,3.53
2022-10-10T15:07:27.518Z,3.90
2022-10-10T15:12:50.719Z,5.93
2022-10-10T15:15:19.621Z,4.57
2022-10-10T15:17:48.719Z,4.50
2022-10-10T15:20:18.873Z,4.87
2022-10-10T15:22:47.759Z,5.03
2022-10-10T15:25:19.899Z,4.90
2022-10-10T15:27:48.723Z,5.50
2022-10-10T15:30:17.335Z,4.80
2022-10-10T15:32:45.836Z,7.10
2022-10-10T15:35:18.223Z,5.17
2022-10-10T15:37:47.650Z,6.77
2022-10-10T15:40:19.604Z,4.90
2022-10-10T15:42:48.431Z,5.37
2022-10-10T15:45:36.940Z,5.37
2022-10-10T15:48:07.899Z,5.20
2022-10-10T15:50:42.221Z,5.57
2022-10-10T15:53:10.729Z,6.53
2022-10-10T15:55:43.394Z,6.53
2022-10-10T15:58:11.861Z,8.23
2022-10-10T16:00:40.926Z,6.50
2022-10-10T16:03:10.020Z,5.93
2022-10-10T16:05:40.915Z,6.17
2022-10-10T16:08:13.643Z,7.30
2022-10-10T16:10:44.325Z,7.37
2022-10-10T16:13:12.783Z,11.53
2022-10-10T16:15:43.783Z,8.30
2022-10-10T16:18:14.678Z,9.90
2022-10-10T16:20:44.990Z,9.17
2022-10-10T16:23:13.443Z,11.00
2022-10-10T16:25:42.021Z,9.43
2022-10-10T16:28:10.996Z,12.70
2022-10-10T16:30:39.551Z,15.40
2022-10-10T16:33:08.023Z,13.23
2022-10-10T16:35:38.317Z,11.93
2022-10-10T16:38:08.188Z,13.10
2022-10-10T16:40:37.439Z,12.17
2022-10-10T16:43:06.103Z,12.50
2022-10-10T16:45:34.585Z,9.83
2022-10-10T16:48:03.061Z,9.70
2022-10-10T16:50:31.816Z,11.97
2022-10-10T16:53:00.940Z,10.90
2022-10-10T16:55:30.842Z,18.50
2022-10-10T16:57:59.352Z,13.73
2022-10-10T17:00:27.739Z,13.70
2022-10-10T17:02:56.279Z,12.80
2022-10-10T17:05:24.701Z,11.43
2022-10-10T17:07:53.097Z,11.70
2022-10-10T17:10:21.560Z,11.93
2022-10-10T17:12:51.468Z,12.10
2022-10-10T17:15:20.009Z,12.63
2022-10-10T17:17:48.444Z,11.73
2022-10-10T17:20:17.021Z,11.37
2022-10-10T17:22:45.679Z,10.93
2022-10-10T17:25:14.342Z,11.27
2022-10-10T17:27:43.389Z,10.00
2022-10-10T17:30:14.329Z,10.90
2022-10-10T17:32:43.989Z,10.10
2022-10-10T17:35:12.822Z,11.13
2022-10-10T17:37:41.332Z,11.00
2022-10-10T17:40:10.627Z,9.47
2022-10-10T17:42:39.177Z,10.20
2022-10-10T17:45:08.683Z,10.67
2022-10-10T17:47:38.608Z,10.63
2022-10-10T17:50:08.645Z,11.70
2022-10-10T17:52:37.212Z,12.40
2022-10-10T17:55:06.166Z,14.60
2022-10-10T17:57:35.593Z,16.73
2022-10-10T18:00:05.343Z,14.37
2022-10-10T18:02:33.895Z,14.63
2022-10-10T18:05:04.334Z,13.93
2022-10-10T18:07:32.845Z,14.83
2022-10-10T18:10:01.383Z,13.60
2022-10-10T18:12:29.831Z,14.90
2022-10-10T18:15:00.473Z,20.93
2022-10-10T18:17:29.727Z,28.00
2022-10-10T18:19:58.961Z,21.47
2022-10-10T18:22:28.856Z,21.40
2022-10-10T18:24:57.340Z,22.07
2022-10-10T18:27:26.800Z,22.10
2022-10-10T18:29:55.255Z,23.30
2022-10-10T18:32:23.728Z,28.43
2022-10-10T18:34:52.211Z,25.27
2022-10-10T18:37:20.661Z,24.97
2022-10-10T18:39:50.432Z,26.37
2022-10-10T18:42:18.831Z,22.30
2022-10-10T18:44:47.665Z,23.40
2022-10-10T18:47:16.165Z,16.67
2022-10-10T18:49:44.608Z,17.03
2022-10-10T18:52:13.077Z,18.40
2022-10-10T18:54:41.588Z,17.67
2022-10-10T18:57:11.413Z,16.43
2022-10-10T18:59:39.997Z,16.10
2022-10-10T19:02:08.458Z,15.90
2022-10-10T19:04:36.942Z,14.97
2022-10-10T19:07:06.271Z,15.90
2022-10-10T19:09:35.270Z,15.47
2022-10-10T19:12:03.695Z,17.30
2022-10-10T19:14:33.569Z,14.80
2022-10-10T19:17:02.048Z,14.77
2022-10-10T19:19:30.770Z,14.10
2022-10-10T19:21:59.342Z,18.47
2022-10-10T19:24:28.079Z,15.40
2022-10-10T19:26:57.892Z,21.70
2022-10-10T19:29:27.655Z,21.90
2022-10-10T19:31:57.495Z,15.47
2022-10-10T19:34:26.052Z,14.17
2022-10-10T19:36:54.548Z,13.23
2022-10-10T19:39:22.940Z,13.77
2022-10-10T19:41:51.417Z,13.40
2022-10-10T19:44:19.912Z,12.33
2022-10-10T19:46:48.452Z,14.40
2022-10-10T19:49:18.394Z,13.67
2022-10-10T19:51:46.909Z,15.30
2022-10-10T19:54:15.312Z,15.10
2022-10-10T19:56:43.761Z,15.53
2022-10-10T19:59:12.206Z,16.57
2022-10-10T20:01:40.740Z,16.00
2022-10-10T20:04:09.226Z,14.97
2022-10-10T20:06:41.162Z,14.10
2022-10-10T20:09:11.041Z,12.80
2022-10-10T20:11:40.555Z,14.20
2022-10-10T20:14:09.949Z,14.17
2022-10-10T20:16:38.911Z,14.00
2022-10-10T20:19:07.402Z,12.50
2022-10-10T20:21:35.876Z,12.87
2022-10-10T20:24:08.052Z,15.60
2022-10-10T20:26:37.349Z,12.97
2022-10-10T20:29:07.054Z,13.20
2022-10-10T20:31:36.816Z,12.57
2022-10-10T20:34:07.131Z,13.10
2022-10-10T20:36:36.878Z,10.83
2022-10-10T20:39:09.548Z,9.67
2022-10-10T20:41:40.345Z,11.07
2022-10-10T20:44:12.158Z,11.50
2022-10-10T20:46:45.387Z,10.27
2022-10-10T20:49:15.802Z,9.37
2022-10-10T20:51:48.539Z,10.40
2022-10-10T20:54:24.472Z,10.60
2022-10-10T20:56:53.687Z,12.23
2022-10-10T20:59:24.969Z,11.13
2022-10-10T21:01:53.749Z,10.50
2022-10-10T21:04:23.543Z,10.67
2022-10-10T21:06:52.000Z,11.83
2022-10-10T21:09:22.180Z,12.10
2022-10-10T21:11:51.552Z,11.50
2022-10-10T21:14:20.386Z,11.77
2022-10-10T21:16:50.435Z,11.60
2022-10-10T21:19:19.479Z,12.17
2022-10-10T21:21:48.281Z,12.23
2022-10-10T21:24:19.052Z,12.10
2022-10-10T21:26:50.618Z,11.60
2022-10-10T21:29:19.585Z,10.97
2022-10-10T21:31:48.334Z,12.07
2022-10-10T21:34:18.889Z,11.30
2022-10-10T21:36:47.742Z,11.87
2022-10-10T21:39:16.593Z,10.83
2022-10-10T21:41:45.051Z,10.70
2022-10-10T21:44:15.848Z,10.63
2022-10-10T21:46:44.344Z,10.63
2022-10-10T21:49:13.963Z,10.87
2022-10-10T21:51:45.488Z,11.37
2022-10-10T21:54:14.434Z,10.97
2022-10-10T21:56:42.978Z,11.93
2022-10-10T21:59:12.681Z,11.10
2022-10-10T22:01:44.082Z,11.13
2022-10-10T22:04:12.834Z,11.23
2022-10-10T22:06:41.506Z,11.27
2022-10-10T22:09:10.267Z,9.73
2022-10-10T22:11:39.106Z,11.27
2022-10-10T22:14:07.599Z,12.10
2022-10-10T22:16:36.693Z,10.30
2022-10-10T22:19:06.893Z,10.50
2022-10-10T22:21:35.787Z,10.97
2022-10-10T22:24:06.720Z,11.70
2022-10-10T22:26:36.023Z,10.50
2022-10-10T22:29:05.187Z,9.80
2022-10-10T22:31:35.509Z,10.40
2022-10-10T22:34:05.591Z,10.03
2022-10-10T22:36:34.033Z,10.13
2022-10-10T22:39:02.533Z,9.57
2022-10-10T22:41:31.010Z,9.47
2022-10-10T22:43:59.795Z,9.37
2022-10-10T22:46:28.254Z,7.93
2022-10-10T22:48:56.734Z,9.17
2022-10-10T22:51:26.603Z,9.73
2022-10-10T22:53:55.132Z,8.53
2022-10-10T22:56:24.004Z,8.03
2022-10-10T22:58:53.088Z,8.67
2022-10-10T23:01:23.903Z,9.30
2022-10-10T23:03:55.543Z,8.23
2022-10-10T23:06:25.611Z,9.67
2022-10-10T23:08:55.145Z,8.10
2022-10-10T23:11:23.694Z,13.63
2022-10-10T23:13:52.511Z,14.03
2022-10-10T23:16:21.050Z,10.60
2022-10-10T23:18:49.639Z,8.63
2022-10-10T23:21:18.208Z,14.47
2022-10-10T23:23:48.160Z,7.80
2022-10-10T23:26:19.202Z,7.10
2022-10-10T23:28:50.066Z,7.60
2022-10-10T23:31:18.853Z,10.07
2022-10-10T23:33:47.424Z,12.37
2022-10-10T23:36:17.028Z,18.80
2022-10-10T23:38:48.798Z,8.10
2022-10-10T23:41:17.291Z,9.30
2022-10-10T23:43:45.804Z,8.90
2022-10-10T23:46:15.041Z,19.57
2022-10-10T23:48:43.480Z,10.97
2022-10-10T23:51:12.056Z,12.23
2022-10-10T23:53:40.699Z,13.90
2022-10-10T23:56:10.849Z,13.57
2022-10-10T23:58:39.314Z,10.03
